Terminal Aerodrome Forecast
Issued by NWS

Home | Current Version | Previous Version | Text Only | Print | Product List | Glossary On
Versions: 1 2 3 4 5 6 7 8 9 10 11 12 13 14 15 16 17 18
000
FTUS41 KCLE 041439 AAA
TAFFDY
TAF AMD
KFDY 041439Z 0415/0512 19005KT P6SM VCTS SCT030CB BKN050
     FM042300 23006KT P6SM SCT045 BKN200
     FM050700 VRB03KT 4SM BR SCT050 BKN120=

USA.gov is the U.S. government's official web portal to all federal, state and local government web resources and services.